Time;durP1;ratioP1;P1;durP2;ratioP2;P2;SDS_P1;SDS_P2;PMS_P1;PMS_P2;Temp;Humidity;BMP_temperature;BMP_pressure;BME280_temperature;BME280_humidity;BME280_pressure;Samples;Min_cycle;Max_cycle;Signal;HPM_P1;HPM_P2
2021/12/31 00:01:25;;;;;;;1.50;0.80;;;12.20;99.90;;;11.61;100.00;97892.22;5019709;28;20021;-82
2021/12/31 00:03:52;;;;;;;1.10;0.80;;;12.10;99.90;;;11.61;100.00;97909.81;5033609;28;20041;-82
2021/12/31 00:06:17;;;;;;;2.40;0.77;;;12.10;99.90;;;11.61;100.00;97913.34;5019806;28;20092;-81
2021/12/31 00:08:43;;;;;;;1.40;0.77;;;12.10;99.90;;;11.65;100.00;97917.63;5023119;28;20060;-82
2021/12/31 00:11:09;;;;;;;1.45;0.90;;;12.10;99.90;;;11.55;100.00;97897.69;5019337;28;20377;-82
2021/12/31 00:13:35;;;;;;;2.08;0.85;;;12.10;99.90;;;11.59;100.00;97901.97;5021668;28;20034;-82
2021/12/31 00:16:00;;;;;;;2.67;1.00;;;12.00;99.90;;;11.55;100.00;97900.34;5034292;28;20030;-81
2021/12/31 00:18:26;;;;;;;2.92;1.00;;;12.00;99.90;;;11.47;100.00;97899.72;5020592;28;20061;-81
2021/12/31 00:20:52;;;;;;;1.58;0.70;;;12.00;99.90;;;11.53;100.00;97904.81;5028160;28;20045;-81
2021/12/31 00:23:23;;;;;;;1.15;0.70;;;12.00;99.90;;;11.51;100.00;97914.56;5008067;28;20107;-81
2021/12/31 00:25:49;;;;;;;1.45;0.70;;;11.90;99.90;;;11.44;100.00;97911.25;5023615;28;20034;-81
2021/12/31 00:28:14;;;;;;;1.77;0.88;;;11.90;99.90;;;11.33;100.00;97891.41;5007076;28;20052;-81
2021/12/31 00:30:40;;;;;;;0.75;0.70;;;11.90;99.90;;;11.39;100.00;97920.22;5006249;28;20025;-81
2021/12/31 00:33:08;;;;;;;1.98;0.85;;;11.80;99.90;;;11.39;100.00;97909.66;5005718;28;20037;-81
2021/12/31 00:35:36;;;;;;;2.00;0.82;;;11.80;99.90;;;11.31;100.00;97896.72;5020817;28;20498;-81
2021/12/31 00:38:02;;;;;;;3.15;0.82;;;11.80;99.90;;;11.35;100.00;97903.63;5011997;28;20037;-81
2021/12/31 00:40:28;;;;;;;2.45;0.75;;;11.80;99.90;;;11.30;100.00;97900.25;5028987;28;20088;-81
2021/12/31 00:42:54;;;;;;;1.10;0.80;;;11.80;99.90;;;11.39;100.00;97907.03;5019179;28;20030;-81
2021/12/31 00:45:24;;;;;;;0.90;0.70;;;11.80;99.90;;;11.43;100.00;97916.56;5023420;28;20037;-81
2021/12/31 00:47:50;;;;;;;1.60;0.70;;;11.80;99.90;;;11.34;100.00;97911.59;5012896;28;20033;-81
2021/12/31 00:50:17;;;;;;;1.13;0.60;;;11.80;99.90;;;11.32;100.00;97903.72;5005935;28;20026;-81
2021/12/31 00:52:43;;;;;;;1.10;0.93;;;11.80;99.90;;;11.32;100.00;97905.50;5033245;28;20025;-81
2021/12/31 00:55:10;;;;;;;0.77;0.75;;;11.80;99.90;;;11.32;100.00;97913.41;5030767;28;20033;-81
2021/12/31 00:57:37;;;;;;;1.55;0.90;;;11.70;99.90;;;11.18;100.00;97900.66;4996496;28;20071;-81
2021/12/31 01:00:09;;;;;;;1.15;0.65;;;11.60;99.90;;;11.11;100.00;97913.19;5016631;28;20084;-81
2021/12/31 01:02:34;;;;;;;1.35;0.95;;;11.60;99.90;;;10.99;100.00;97911.78;5034943;28;20033;-81
2021/12/31 01:05:02;;;;;;;1.35;0.65;;;11.50;99.90;;;10.80;100.00;97894.78;5023570;28;20034;-81
2021/12/31 01:07:28;;;;;;;1.42;0.90;;;11.40;99.90;;;10.86;100.00;97921.00;5028850;22;20030;-46
2021/12/31 01:09:55;;;;;;;1.15;0.80;;;11.30;99.90;;;10.82;100.00;97920.22;5021466;28;20345;-45
2021/12/31 01:12:21;;;;;;;1.95;0.70;;;11.30;99.90;;;10.80;100.00;97926.44;5021455;28;20041;-45
2021/12/31 01:15:00;;;;;;;0.95;0.80;;;11.20;99.90;;;10.79;100.00;97925.56;5017658;28;20095;-46
2021/12/31 01:20:14;;;;;;;1.20;0.80;;;11.20;99.90;;;10.80;100.00;97927.31;5018996;28;20034;-49
2021/12/31 01:22:40;;;;;;;1.00;0.80;;;11.20;99.90;;;10.81;100.00;97930.81;5019056;28;20041;-46
2021/12/31 01:25:08;;;;;;;1.40;0.95;;;11.20;99.90;;;10.82;100.00;97932.53;5021479;28;20090;-46
2021/12/31 01:27:35;;;;;;;2.75;0.85;;;11.20;99.90;;;10.80;100.00;97929.06;5020950;28;20457;-46
2021/12/31 01:30:01;;;;;;;1.50;0.88;;;11.20;99.90;;;10.74;100.00;97931.91;5024374;28;20432;-48
2021/12/31 01:32:27;;;;;;;2.03;0.88;;;11.20;99.90;;;10.70;100.00;97925.84;5002014;28;20450;-46
2021/12/31 01:34:53;;;;;;;2.05;0.90;;;11.10;99.90;;;10.62;100.00;97927.84;5019823;28;20033;-46
2021/12/31 01:37:18;;;;;;;1.45;0.73;;;11.10;99.90;;;10.50;100.00;97923.78;5020641;28;20032;-45
2021/12/31 01:39:46;;;;;;;1.00;0.90;;;10.90;99.90;;;10.40;100.00;97925.81;5026315;28;20025;-46
2021/12/31 01:42:17;;;;;;;0.95;0.82;;;10.80;99.90;;;10.25;100.00;97921.78;5020270;28;20064;-46
2021/12/31 01:44:53;;;;;;;1.65;0.90;;;10.70;99.90;;;10.09;100.00;97926.59;5021186;28;20487;-47
2021/12/31 01:47:22;;;;;;;1.65;0.90;;;10.60;99.90;;;10.01;100.00;97919.81;5022125;28;20053;-46
2021/12/31 01:49:58;;;;;;;2.28;1.10;;;10.50;99.90;;;9.93;100.00;97923.50;5038830;22;20503;-42
2021/12/31 01:52:24;;;;;;;0.80;0.70;;;10.40;99.90;;;9.89;100.00;97921.00;5017151;28;20061;-43
2021/12/31 01:54:50;;;;;;;1.50;0.90;;;10.30;99.90;;;9.82;100.00;97933.47;5014665;28;20037;-39
2021/12/31 01:57:17;;;;;;;1.60;1.02;;;10.30;99.90;;;9.80;100.00;97926.47;5021193;28;20041;-40
2021/12/31 01:59:43;;;;;;;2.13;1.00;;;10.20;99.90;;;9.74;100.00;97925.75;5008173;28;20406;-42
2021/12/31 02:02:10;;;;;;;4.57;1.10;;;10.20;99.90;;;9.68;100.00;97922.41;5021328;28;20041;-39
2021/12/31 02:04:40;;;;;;;2.65;1.05;;;10.10;99.90;;;9.61;100.00;97921.69;5026656;28;20509;-40
2021/12/31 02:07:07;;;;;;;4.28;1.00;;;10.10;99.90;;;9.54;100.00;97923.59;5024705;28;20479;-41
2021/12/31 02:09:35;;;;;;;1.30;0.90;;;10.00;99.90;;;9.54;100.00;97925.38;5028057;28;20403;-43
2021/12/31 02:12:01;;;;;;;1.40;0.93;;;9.90;99.90;;;9.41;100.00;97916.06;5024067;28;20033;-41
2021/12/31 02:14:28;;;;;;;4.85;1.00;;;9.90;99.90;;;9.31;100.00;97911.00;5020923;28;20029;-40
2021/12/31 02:16:54;;;;;;;2.35;1.10;;;9.80;99.90;;;9.29;100.00;97904.91;5021320;28;20030;-40
2021/12/31 02:19:27;;;;;;;1.15;1.02;;;9.80;99.90;;;9.25;100.00;97918.19;5027249;28;20064;-40
2021/12/31 02:21:54;;;;;;;2.25;1.10;;;9.70;99.90;;;9.23;100.00;97912.09;5022594;28;20366;-39
2021/12/31 02:24:21;;;;;;;1.60;0.90;;;9.70;99.90;;;9.20;100.00;97907.75;5020555;28;20064;-42
2021/12/31 02:26:48;;;;;;;0.77;0.73;;;9.60;99.90;;;9.12;100.00;97907.09;5025729;28;20032;-41
2021/12/31 02:29:13;;;;;;;2.58;1.10;;;9.60;99.90;;;9.11;100.00;97910.59;5020815;28;20029;-40
2021/12/31 02:31:39;;;;;;;3.13;0.90;;;9.60;99.90;;;9.07;100.00;97901.91;5021611;28;20127;-42
2021/12/31 02:34:05;;;;;;;3.78;1.08;;;9.50;99.90;;;8.98;100.00;97894.22;5015913;28;20033;-38
2021/12/31 02:36:30;;;;;;;1.88;0.90;;;9.50;99.90;;;9.04;100.00;97903.75;5015272;28;20032;-42
2021/12/31 02:38:56;;;;;;;2.03;1.30;;;9.50;99.90;;;8.98;100.00;97900.34;5024435;28;20033;-42
2021/12/31 02:41:22;;;;;;;1.48;1.10;;;9.40;99.90;;;9.02;100.00;97902.91;5023550;28;20045;-42
2021/12/31 02:43:48;;;;;;;3.58;1.05;;;9.50;99.90;;;9.08;100.00;97908.03;5024349;28;20044;-42
2021/12/31 02:46:14;;;;;;;2.67;1.13;;;9.50;99.90;;;9.03;100.00;97899.41;5021642;28;20018;-41
2021/12/31 02:48:40;;;;;;;1.88;1.08;;;9.50;99.90;;;8.93;100.00;97894.31;5025661;28;20245;-38
2021/12/31 02:51:06;;;;;;;1.75;1.00;;;9.40;99.90;;;8.93;100.00;97903.97;5025150;28;20041;-41
2021/12/31 02:53:36;;;;;;;1.85;1.02;;;9.40;99.90;;;8.88;100.00;97896.22;5025017;28;20079;-42
2021/12/31 02:56:10;;;;;;;2.30;1.17;;;9.40;99.90;;;8.96;100.00;97898.66;5020858;28;20021;-41
2021/12/31 02:58:37;;;;;;;1.88;1.10;;;9.40;99.90;;;8.87;100.00;97894.47;5006012;28;20044;-44
2021/12/31 03:01:04;;;;;;;1.98;1.08;;;9.40;99.90;;;8.83;100.00;97884.03;5018692;28;20445;-41
2021/12/31 03:03:33;;;;;;;3.03;1.00;;;9.30;99.90;;;8.79;100.00;97880.59;5015984;28;20026;-46
2021/12/31 03:05:59;;;;;;;3.58;1.25;;;9.30;99.90;;;8.70;100.00;97879.03;5022907;28;20025;-43
2021/12/31 03:08:35;;;;;;;3.72;1.55;;;9.30;99.90;;;8.72;100.00;97879.91;5015580;28;20348;-46
2021/12/31 03:11:04;;;;;;;2.28;1.10;;;9.20;99.90;;;8.71;100.00;97874.66;5019997;28;20029;-40
2021/12/31 03:13:30;;;;;;;1.88;1.02;;;9.20;99.90;;;8.68;100.00;97887.88;5021847;28;20084;-43
2021/12/31 03:15:59;;;;;;;1.80;0.95;;;9.20;99.90;;;8.67;100.00;97884.38;5019876;28;20030;-42
2021/12/31 03:18:26;;;;;;;4.85;1.10;;;9.20;99.90;;;8.61;100.00;97884.50;5018487;28;20033;-46
2021/12/31 03:20:57;;;;;;;1.88;1.10;;;9.10;99.90;;;8.47;100.00;97861.16;5001718;28;20033;-46
2021/12/31 03:23:28;;;;;;;2.30;1.20;;;9.10;99.90;;;8.53;100.00;97871.53;5018035;28;20400;-40
2021/12/31 03:25:53;;;;;;;2.35;0.98;;;9.10;99.90;;;8.48;100.00;97868.13;5019340;28;20506;-46
2021/12/31 03:28:20;;;;;;;1.83;1.00;;;9.00;99.90;;;8.46;100.00;97888.34;5023066;28;20045;-44
2021/12/31 03:30:48;;;;;;;2.15;1.02;;;9.00;99.90;;;8.41;100.00;97890.16;5027115;28;20037;-42
2021/12/31 03:33:14;;;;;;;1.98;1.23;;;9.00;99.90;;;8.40;100.00;97891.06;5023437;28;20048;-41
2021/12/31 03:35:40;;;;;;;4.40;1.08;;;8.90;99.90;;;8.37;100.00;97891.13;5020309;28;20390;-42
2021/12/31 03:38:06;;;;;;;2.30;1.20;;;8.90;99.90;;;8.35;100.00;97893.78;5019499;28;20117;-45
2021/12/31 03:40:32;;;;;;;2.95;1.20;;;8.90;99.90;;;8.33;100.00;97890.31;5023233;28;20419;-46
2021/12/31 03:42:58;;;;;;;1.83;1.30;;;8.80;99.90;;;8.29;100.00;97879.88;5019369;28;20038;-45
2021/12/31 03:45:25;;;;;;;2.33;1.10;;;8.80;99.90;;;8.29;100.00;97887.75;5024337;28;20049;-41
2021/12/31 03:47:51;;;;;;;1.60;1.20;;;8.80;99.90;;;8.17;100.00;97873.97;5024791;28;20041;-43
2021/12/31 03:50:16;;;;;;;2.58;1.20;;;8.80;99.90;;;8.25;100.00;97894.00;5022765;28;20290;-40
2021/12/31 03:52:42;;;;;;;1.15;1.05;;;8.80;99.90;;;8.26;100.00;97890.47;5027074;28;20082;-42
2021/12/31 03:55:10;;;;;;;3.15;1.45;;;8.80;99.90;;;8.25;100.00;97889.59;5024969;28;20029;-42
2021/12/31 03:57:39;;;;;;;2.65;1.08;;;8.80;99.90;;;8.25;100.00;97880.84;5024664;28;20039;-40
2021/12/31 04:00:07;;;;;;;2.60;1.23;;;8.80;99.90;;;8.28;100.00;97893.94;5019502;28;20045;-42
2021/12/31 04:02:35;;;;;;;3.45;1.33;;;8.80;99.90;;;8.28;100.00;97893.94;5022269;28;20030;-42
2021/12/31 04:05:00;;;;;;;4.90;1.25;;;8.80;99.90;;;8.17;100.00;97873.97;5021498;28;20029;-42
2021/12/31 04:07:26;;;;;;;1.60;1.35;;;8.80;99.90;;;8.22;100.00;97887.91;5026292;28;20446;-46
2021/12/31 04:09:52;;;;;;;2.40;1.30;;;8.80;99.90;;;8.21;100.00;97893.19;5022162;28;20030;-42
2021/12/31 04:12:18;;;;;;;3.90;1.33;;;8.80;99.90;;;8.15;100.00;97881.03;5021673;28;20033;-41
2021/12/31 04:14:44;;;;;;;3.28;1.10;;;8.70;99.90;;;8.26;100.00;97893.09;5004121;28;20099;-44
2021/12/31 04:17:09;;;;;;;2.10;1.17;;;8.80;99.90;;;8.25;100.00;97889.59;5012049;28;20499;-44
2021/12/31 04:19:35;;;;;;;2.08;1.50;;;8.80;99.90;;;8.24;100.00;97882.63;5011242;28;20487;-42
2021/12/31 04:22:02;;;;;;;2.53;1.38;;;8.70;99.90;;;8.22;100.00;97882.66;5023383;28;20606;-41
2021/12/31 04:24:52;;;;;;;1.27;1.02;;;8.70;99.90;;;8.18;100.00;97880.97;5026125;28;20505;-42
2021/12/31 04:27:16;;;;;;;2.42;1.30;;;8.70;99.90;;;8.19;100.00;97881.84;5021451;28;20052;-43
2021/12/31 04:29:49;;;;;;;3.63;1.48;;;8.70;99.90;;;8.20;100.00;97884.44;5023909;28;20473;-41
2021/12/31 04:32:15;;;;;;;3.53;1.25;;;8.70;99.90;;;8.19;100.00;97876.59;5025514;28;20237;-39
2021/12/31 04:34:41;;;;;;;2.55;1.20;;;8.70;99.90;;;8.21;100.00;97877.41;5016304;28;20029;-41
2021/12/31 04:37:06;;;;;;;4.05;1.35;;;8.70;99.90;;;8.19;100.00;97873.97;5016726;28;20862;-42
2021/12/31 04:39:32;;;;;;;2.17;1.50;;;8.70;99.90;;;8.19;100.00;97876.59;5027658;28;20209;-42
2021/12/31 04:41:58;;;;;;;2.15;1.10;;;8.70;99.90;;;8.25;100.00;97872.97;5021937;28;20517;-42
2021/12/31 04:44:23;;;;;;;5.20;1.35;;;8.70;99.90;;;8.25;100.00;97875.59;5026198;28;20041;-42
2021/12/31 04:46:49;;;;;;;1.42;1.10;;;8.70;99.90;;;8.22;100.00;97869.50;5023038;28;20100;-41
2021/12/31 04:49:15;;;;;;;3.88;1.20;;;8.70;99.90;;;8.25;100.00;97865.09;5021401;28;20476;-41
2021/12/31 04:51:41;;;;;;;1.70;1.20;;;8.70;99.90;;;8.21;100.00;97865.13;5021734;28;20030;-41
2021/12/31 04:54:14;;;;;;;1.45;1.35;;;8.80;99.90;;;8.20;100.00;97866.03;5009418;28;20037;-43
2021/12/31 04:56:39;;;;;;;3.38;1.50;;;8.70;99.90;;;8.16;100.00;97855.63;5025211;28;20403;-40
2021/12/31 04:59:05;;;;;;;1.65;1.10;;;8.70;99.90;;;8.22;100.00;97866.88;5023664;28;20064;-41
2021/12/31 05:01:31;;;;;;;1.80;1.30;;;8.70;99.90;;;8.22;100.00;97866.03;5024011;28;20037;-42
2021/12/31 05:03:56;;;;;;;2.97;1.20;;;8.80;99.90;;;8.17;100.00;97865.25;5022358;28;20064;-44
2021/12/31 05:06:22;;;;;;;1.75;1.05;;;8.70;99.90;;;8.13;100.00;97851.31;5023384;28;20501;-47
2021/12/31 05:08:48;;;;;;;2.88;1.40;;;8.70;99.90;;;8.11;100.00;97863.59;5022278;28;20052;-42
2021/12/31 05:11:13;;;;;;;3.50;1.02;;;8.70;99.90;;;8.16;100.00;97860.88;5025510;28;20462;-45
2021/12/31 05:13:39;;;;;;;2.55;1.30;;;8.60;99.90;;;8.13;100.00;97864.44;5022642;28;20144;-45
2021/12/31 05:16:06;;;;;;;3.80;1.02;;;8.60;99.90;;;8.10;100.00;97861.88;5023525;28;20044;-44
2021/12/31 05:18:32;;;;;;;2.80;1.40;;;8.60;99.90;;;8.03;100.00;97855.84;5022831;28;20116;-39
2021/12/31 05:20:58;;;;;;;2.25;1.10;;;8.60;99.90;;;8.05;100.00;97861.09;5021525;28;20091;-47
2021/12/31 05:23:24;;;;;;;2.28;1.17;;;8.50;99.90;;;7.92;100.00;97844.69;5024690;28;20033;-40
2021/12/31 05:25:50;;;;;;;3.22;1.08;;;8.50;99.90;;;7.98;100.00;97865.59;5017379;28;20068;-40
2021/12/31 05:28:15;;;;;;;2.53;1.15;;;8.50;99.90;;;7.96;100.00;97861.25;5022530;28;20057;-45
2021/12/31 05:30:41;;;;;;;3.28;1.20;;;8.50;99.90;;;7.89;100.00;97852.63;5022894;28;20481;-47
2021/12/31 05:33:07;;;;;;;5.15;1.23;;;8.40;99.90;;;7.89;100.00;97849.16;5020710;28;20571;-42
2021/12/31 05:35:33;;;;;;;1.40;1.17;;;8.40;99.90;;;7.92;100.00;97857.84;5015948;28;20558;-44
2021/12/31 05:37:59;;;;;;;2.92;1.27;;;8.40;99.90;;;7.90;100.00;97849.13;5021566;28;20033;-45
2021/12/31 05:40:25;;;;;;;3.90;1.20;;;8.40;99.90;;;7.97;100.00;97868.25;5021452;28;20141;-39
2021/12/31 05:42:50;;;;;;;2.55;1.35;;;8.40;99.90;;;7.96;100.00;97866.53;5006151;28;20048;-43
2021/12/31 05:45:17;;;;;;;1.67;1.20;;;8.40;99.90;;;7.97;100.00;97866.50;5024588;28;20406;-42
2021/12/31 05:47:42;;;;;;;2.83;1.30;;;8.50;99.90;;;8.01;100.00;97854.16;5020837;28;20467;-45
2021/12/31 05:50:18;;;;;;;2.75;1.30;;;8.50;99.90;;;8.03;100.00;97855.84;5025270;28;20044;-44
2021/12/31 05:52:46;;;;;;;2.55;1.10;;;8.50;99.90;;;8.01;100.00;97854.16;5020503;28;20037;-44
2021/12/31 05:55:12;;;;;;;2.50;1.10;;;8.50;99.90;;;7.94;100.00;97840.28;5022228;28;20037;-45
2021/12/31 05:57:38;;;;;;;2.58;1.42;;;8.50;99.90;;;7.98;100.00;97848.97;5022167;28;20033;-45
2021/12/31 06:00:05;;;;;;;2.45;1.17;;;8.50;99.90;;;7.90;100.00;97843.00;5025435;28;20040;-47
2021/12/31 06:02:30;;;;;;;2.97;1.10;;;8.40;99.90;;;7.75;100.00;97831.91;5021346;28;20033;-41
2021/12/31 06:04:56;;;;;;;2.40;1.10;;;8.40;99.90;;;7.75;100.00;97850.28;5023442;28;20467;-42
2021/12/31 06:07:21;;;;;;;2.60;1.40;;;8.30;99.90;;;7.71;100.00;97847.72;5022662;28;20029;-40
2021/12/31 06:09:47;;;;;;;2.45;1.15;;;8.30;99.90;;;7.67;100.00;97852.16;5019520;28;20211;-41
2021/12/31 06:12:13;;;;;;;1.38;1.00;;;8.20;99.90;;;7.60;100.00;97851.41;5019513;28;20421;-42
2021/12/31 06:14:39;;;;;;;1.17;1.05;;;8.20;99.90;;;7.55;100.00;97849.75;5025783;28;20033;-45
2021/12/31 06:17:07;;;;;;;1.83;1.10;;;8.10;99.90;;;7.53;100.00;97848.94;5020710;28;20026;-42
2021/12/31 06:19:38;;;;;;;2.88;1.23;;;8.10;99.90;;;7.50;100.00;97849.84;5020389;28;20029;-42
2021/12/31 06:22:04;;;;;;;1.65;1.05;;;8.10;99.90;;;7.48;100.00;97861.25;5023058;28;20116;-41
2021/12/31 06:24:30;;;;;;;1.10;1.00;;;8.00;99.90;;;7.45;100.00;97859.56;5014489;28;20025;-39
2021/12/31 06:26:55;;;;;;;2.42;1.20;;;8.00;99.90;;;7.41;100.00;97865.72;5020228;28;20025;-42
2021/12/31 06:29:21;;;;;;;2.95;1.23;;;7.90;99.90;;;7.39;100.00;97864.91;5023127;28;20080;-42
2021/12/31 06:31:49;;;;;;;1.67;1.00;;;7.90;99.90;;;7.37;100.00;97870.16;5021573;28;20380;-42
2021/12/31 06:34:15;;;;;;;4.40;1.35;;;7.90;99.90;;;7.32;100.00;97874.66;5015289;28;20028;-45
2021/12/31 06:36:40;;;;;;;1.48;1.00;;;7.90;99.90;;;7.30;100.00;97876.41;5017740;28;20041;-41
2021/12/31 06:39:06;;;;;;;2.03;1.05;;;7.80;99.90;;;7.33;100.00;97879.00;5021971;28;20037;-41
2021/12/31 06:41:32;;;;;;;3.25;1.20;;;7.80;99.90;;;7.30;100.00;97871.16;5016263;28;20032;-41
2021/12/31 06:43:57;;;;;;;1.60;1.23;;;7.80;99.90;;;7.26;100.00;97869.50;5021669;28;20052;-43
2021/12/31 06:46:24;;;;;;;3.10;1.20;;;7.80;99.90;;;7.27;100.00;97860.75;5021570;28;20033;-42
2021/12/31 06:48:49;;;;;;;1.92;1.13;;;7.80;99.90;;;7.30;100.00;97859.81;5021984;28;20621;-44
2021/12/31 06:51:15;;;;;;;1.75;1.02;;;7.80;99.90;;;7.29;100.00;97863.34;5021924;28;20065;-38
2021/12/31 06:53:41;;;;;;;2.33;1.00;;;7.80;99.90;;;7.30;100.00;97858.03;5017614;28;20558;-41
2021/12/31 06:56:07;;;;;;;3.63;1.10;;;7.80;99.90;;;7.31;100.00;97864.19;5024501;28;20045;-42
2021/12/31 06:58:33;;;;;;;1.70;1.10;;;7.80;99.90;;;7.31;100.00;97856.31;5019308;28;20415;-42
2021/12/31 07:00:59;;;;;;;1.60;1.10;;;7.80;99.90;;;7.27;100.00;97860.75;5021849;28;20037;-42
2021/12/31 07:03:24;;;;;;;1.88;1.10;;;7.80;99.90;;;7.23;100.00;97859.03;5021665;28;20033;-42
2021/12/31 07:05:50;;;;;;;2.47;1.13;;;7.80;99.90;;;7.22;100.00;97873.91;5023650;28;20041;-47
2021/12/31 07:08:16;;;;;;;1.17;0.90;;;7.80;99.90;;;7.21;100.00;97880.06;5021435;28;20021;-42
2021/12/31 07:10:42;;;;;;;1.45;1.10;;;7.80;99.90;;;7.20;100.00;97880.09;5022040;28;20390;-41
2021/12/31 07:13:11;;;;;;;1.98;1.30;;;7.70;99.90;;;7.16;100.00;97878.38;5020440;28;20072;-42
2021/12/31 07:15:48;;;;;;;1.23;0.95;;;7.70;99.90;;;7.15;100.00;97889.78;5021697;28;20025;-41
2021/12/31 07:18:18;;;;;;;2.33;1.30;;;7.70;99.90;;;7.11;100.00;97875.00;5019725;28;20033;-42
2021/12/31 07:20:44;;;;;;;1.25;1.15;;;7.60;99.90;;;7.12;100.00;97874.09;5019587;28;20039;-42
2021/12/31 07:23:13;;;;;;;2.28;1.20;;;7.70;99.90;;;7.14;100.00;97877.53;5021133;28;20033;-40
2021/12/31 07:25:40;;;;;;;1.42;0.98;;;7.70;99.90;;;7.14;100.00;97883.69;5019116;28;20021;-44
2021/12/31 07:28:07;;;;;;;1.98;1.10;;;7.70;99.90;;;7.14;100.00;97878.44;5023750;28;20122;-43
2021/12/31 07:30:33;;;;;;;2.58;1.50;;;7.70;99.90;;;7.15;100.00;97874.03;5025324;28;20026;-45
2021/12/31 07:32:59;;;;;;;1.77;1.40;;;7.70;99.90;;;7.13;100.00;97871.44;5022351;28;20025;-42
2021/12/31 07:35:25;;;;;;;1.75;1.20;;;7.70;99.90;;;7.18;100.00;97880.13;5026274;28;20037;-42
2021/12/31 07:37:55;;;;;;;2.50;1.25;;;7.70;99.90;;;7.21;100.00;97871.31;5023849;28;20427;-42
2021/12/31 07:40:41;;;;;;;2.72;1.70;;;7.70;99.90;;;7.04;100.00;97850.63;5017682;28;20529;-43
2021/12/31 07:43:09;;;;;;;2.25;1.77;;;7.80;99.90;;;7.22;100.00;97870.44;5012577;28;20033;-40
2021/12/31 07:45:35;;;;;;;2.30;1.42;;;7.80;99.90;;;7.26;100.00;97870.34;5012541;28;20574;-44
2021/12/31 07:48:03;;;;;;;2.33;1.70;;;7.80;99.90;;;7.29;100.00;97882.56;5014371;28;20511;-41
2021/12/31 07:52:56;;;;;;;1.85;1.52;;;7.80;99.90;;;7.32;100.00;97882.53;4987786;28;20413;-43
2021/12/31 07:55:22;;;;;;;3.08;2.03;;;7.90;99.90;;;7.35;100.00;97885.06;4990961;28;20033;-46
2021/12/31 07:57:48;;;;;;;2.92;2.28;;;7.90;99.90;;;7.51;100.00;97883.06;4992506;28;20029;-47
2021/12/31 08:00:14;;;;;;;4.13;2.75;;;8.00;99.90;;;7.55;100.00;97878.63;4989884;28;20034;-46
2021/12/31 08:02:40;;;;;;;4.20;2.30;;;8.10;99.90;;;7.51;100.00;97861.22;4979558;28;20073;-46
2021/12/31 08:05:06;;;;;;;4.18;2.50;;;8.10;99.90;;;7.60;100.00;97890.78;4978511;28;20500;-46
2021/12/31 08:07:32;;;;;;;3.40;2.60;;;8.10;99.90;;;7.63;100.00;97889.88;4981580;28;20421;-46
2021/12/31 08:09:58;;;;;;;4.50;2.75;;;8.20;99.90;;;7.61;100.00;97889.91;4978175;28;20038;-45
2021/12/31 08:12:24;;;;;;;5.30;2.92;;;8.20;99.90;;;7.60;100.00;97880.28;4978595;28;20070;-48
2021/12/31 08:14:50;;;;;;;3.38;2.60;;;8.20;99.90;;;7.69;100.00;97886.28;4976715;28;20104;-43
2021/12/31 08:17:16;;;;;;;5.72;3.35;;;8.20;99.90;;;7.68;100.00;97888.03;4981439;28;20038;-47
2021/12/31 08:19:42;;;;;;;3.78;2.92;;;8.20;99.90;;;7.73;100.00;97894.06;4969791;28;20117;-48
2021/12/31 08:22:08;;;;;;;6.18;3.85;;;8.20;99.90;;;7.78;100.00;97902.72;4976500;28;20737;-46
2021/12/31 08:24:34;;;;;;;5.40;3.35;;;8.30;99.90;;;7.89;100.00;97896.41;4977460;28;20497;-46
2021/12/31 08:27:00;;;;;;;5.43;3.45;;;8.40;99.90;;;7.87;100.00;97892.97;4979977;28;20109;-46
2021/12/31 08:29:26;;;;;;;4.95;3.75;;;8.40;99.90;;;7.82;100.00;97893.91;4984248;28;20069;-45
2021/12/31 08:31:52;;;;;;;6.35;3.78;;;8.40;99.90;;;7.91;100.00;97897.25;4980369;28;20061;-43
2021/12/31 08:34:17;;;;;;;5.45;3.78;;;8.50;99.90;;;7.91;100.00;97889.38;4976886;28;20034;-48
2021/12/31 08:36:43;;;;;;;6.22;4.30;;;8.50;99.90;;;7.99;100.00;97884.84;4976625;28;20073;-42
2021/12/31 08:39:10;;;;;;;7.43;3.83;;;8.50;99.90;;;8.03;100.00;97881.25;4977496;28;20065;-48
2021/12/31 08:41:37;;;;;;;5.55;3.78;;;8.60;99.90;;;8.06;100.00;97885.59;4980871;28;20042;-46
2021/12/31 08:44:04;;;;;;;8.05;3.88;;;8.60;99.90;;;8.10;100.00;97882.03;4981028;28;20034;-45
2021/12/31 08:46:32;;;;;;;6.70;4.20;;;8.60;99.90;;;8.16;100.00;97881.88;4979977;28;20106;-46
2021/12/31 08:48:57;;;;;;;7.30;4.40;;;8.70;99.90;;;8.22;100.00;97880.03;4980335;28;20161;-47
2021/12/31 08:51:25;;;;;;;7.65;4.30;;;8.80;99.90;;;8.26;100.00;97875.56;4986177;28;20101;-47
2021/12/31 08:53:52;;;;;;;9.70;4.65;;;8.80;99.90;;;8.29;100.00;97872.88;4982699;28;20080;-45
2021/12/31 08:56:18;;;;;;;7.93;4.45;;;8.80;99.90;;;8.32;100.00;97864.91;4981667;28;20036;-48
2021/12/31 08:58:44;;;;;;;7.18;4.95;;;8.90;99.90;;;8.37;100.00;97870.09;4983774;28;20030;-44
2021/12/31 09:01:09;;;;;;;5.78;4.40;;;8.90;99.90;;;8.43;100.00;97859.47;4979456;28;20343;-46
2021/12/31 09:03:35;;;;;;;6.80;4.20;;;9.00;99.90;;;8.48;100.00;97870.75;4978841;28;20066;-45
2021/12/31 09:06:01;;;;;;;9.27;5.32;;;9.00;99.90;;;8.50;100.00;97862.84;4976367;28;20726;-46
2021/12/31 09:08:27;;;;;;;7.65;5.32;;;9.00;99.90;;;8.54;100.00;97864.50;4985074;28;20507;-46
2021/12/31 09:10:53;;;;;;;8.73;5.45;;;9.10;99.90;;;8.62;100.00;97869.63;4981753;28;20411;-46
2021/12/31 09:13:19;;;;;;;7.32;4.82;;;9.10;99.90;;;8.70;100.00;97867.66;4983681;28;20310;-47
2021/12/31 09:15:45;;;;;;;9.73;5.78;;;9.20;99.90;;;8.71;100.00;97861.53;4984923;28;20107;-46
2021/12/31 09:18:10;;;;;;;7.32;5.03;;;9.30;99.90;;;8.74;100.00;97867.59;4984318;28;20037;-45
2021/12/31 09:20:36;;;;;;;7.82;5.22;;;9.30;99.90;;;8.76;100.00;97868.41;4979822;28;20038;-46
2021/12/31 09:23:02;;;;;;;9.27;5.82;;;9.30;99.90;;;8.77;100.00;97870.16;4985461;28;20030;-45
2021/12/31 09:25:28;;;;;;;7.40;5.32;;;9.30;99.90;;;8.80;100.00;97853.44;4981513;28;20080;-46
2021/12/31 09:27:54;;;;;;;7.93;5.45;;;9.40;99.90;;;8.85;100.00;97862.09;4984299;28;20045;-44
2021/12/31 09:30:20;;;;;;;7.32;5.32;;;9.40;99.90;;;8.94;100.00;97858.38;4981922;28;20038;-49
2021/12/31 09:32:46;;;;;;;8.48;6.18;;;9.50;99.90;;;8.95;100.00;97866.25;4982307;28;20034;-47
2021/12/31 09:35:11;;;;;;;8.90;5.60;;;9.50;99.90;;;8.96;100.00;97857.44;4981096;28;20033;-46
2021/12/31 09:37:38;;;;;;;9.45;5.53;;;9.50;99.90;;;8.95;100.00;97858.34;4976281;28;20048;-47
2021/12/31 09:40:05;;;;;;;7.00;4.90;;;9.60;99.90;;;9.01;100.00;97866.97;4979797;28;20042;-45
2021/12/31 09:42:31;;;;;;;8.32;5.50;;;9.60;99.90;;;8.98;100.00;97854.78;4981375;28;20038;-45
2021/12/31 09:44:56;;;;;;;8.00;5.03;;;9.60;99.90;;;9.06;100.00;97852.84;4983991;28;20223;-45
2021/12/31 09:47:22;;;;;;;9.60;5.68;;;9.60;99.90;;;9.09;100.00;97855.38;4981078;28;20563;-45
2021/12/31 09:49:48;;;;;;;7.35;5.05;;;9.70;99.90;;;9.14;100.00;97863.16;4982107;28;20030;-46
2021/12/31 09:52:17;;;;;;;7.72;4.93;;;9.70;99.90;;;9.21;100.00;97859.50;4982552;28;20756;-45
2021/12/31 09:54:46;;;;;;;7.47;5.10;;;9.80;99.90;;;9.26;100.00;97869.88;4983614;28;20041;-45
2021/12/31 09:57:18;;;;;;;6.20;4.30;;;9.80;99.90;;;9.27;100.00;97861.09;4987708;28;20129;-46
2021/12/31 09:59:46;;;;;;;7.85;4.78;;;9.80;99.90;;;9.34;100.00;97860.06;4968032;28;20033;-47
2021/12/31 10:02:13;;;;;;;6.35;4.32;;;9.90;99.90;;;9.40;100.00;97875.69;4986653;28;20034;-44
2021/12/31 10:04:59;;;;;;;6.55;4.13;;;10.00;99.90;;;9.50;100.00;97873.69;4983788;28;20046;-49
2021/12/31 10:07:28;;;;;;;5.93;4.47;;;10.10;99.90;;;9.54;100.00;97862.19;4981824;28;20399;-46
2021/12/31 10:10:15;;;;;;;8.02;5.43;;;10.10;99.90;;;9.60;100.00;97858.53;4984355;28;20022;-46
2021/12/31 10:12:56;;;;;;;5.97;4.22;;;10.10;99.90;;;9.64;100.00;97854.94;4982173;28;20030;-46
2021/12/31 10:15:24;;;;;;;5.70;4.10;;;10.20;99.90;;;9.69;100.00;97851.25;4981989;28;20069;-48
2021/12/31 10:17:51;;;;;;;7.55;4.80;;;10.20;99.90;;;9.69;100.00;97847.75;4980533;28;20042;-48
2021/12/31 10:20:18;;;;;;;5.15;3.45;;;10.30;99.90;;;9.80;100.00;97853.63;4983406;28;20045;-46
2021/12/31 10:22:45;;;;;;;9.23;4.07;;;10.30;99.90;;;9.83;100.00;97844.75;4986314;28;20042;-46
2021/12/31 10:25:26;;;;;;;5.32;3.55;;;10.40;99.90;;;9.88;100.00;97845.50;4983759;28;20038;-44
2021/12/31 10:28:11;;;;;;;4.88;3.45;;;10.40;99.90;;;9.93;100.00;97846.25;4982562;28;20097;-45